createdAt,value
2019-05-29T00:03:37.286Z,81.60
2019-05-29T00:08:43.227Z,81.14
2019-05-29T00:13:48.487Z,80.78
2019-05-29T00:18:53.732Z,80.85
2019-05-29T00:23:58.980Z,80.88
2019-05-29T00:29:05.541Z,80.95
2019-05-29T00:34:11.110Z,80.54
2019-05-29T00:39:17.037Z,80.32
2019-05-29T00:44:33.872Z,80.31
2019-05-29T00:49:29.449Z,79.76
2019-05-29T00:54:35.000Z,79.75
2019-05-29T00:59:41.901Z,80.52
2019-05-29T01:04:47.113Z,80.22
2019-05-29T01:09:52.652Z,80.01
2019-05-29T01:14:58.933Z,79.95
2019-05-29T01:20:05.412Z,80.11
2019-05-29T01:25:12.413Z,80.34
2019-05-29T01:30:18.999Z,80.27
2019-05-29T01:35:25.201Z,80.67
2019-05-29T01:40:30.479Z,80.59
2019-05-29T01:45:35.733Z,80.43
2019-05-29T01:50:41.346Z,80.33
2019-05-29T01:55:46.946Z,80.05
2019-05-29T02:00:52.276Z,78.86
2019-05-29T02:05:58.447Z,79.52
2019-05-29T02:11:03.808Z,79.04
2019-05-29T02:16:09.040Z,78.97
2019-05-29T02:21:14.197Z,78.87
2019-05-29T02:26:20.384Z,79.17
2019-05-29T02:31:27.087Z,79.08
2019-05-29T02:36:32.734Z,78.80
2019-05-29T02:41:37.987Z,79.25
2019-05-29T02:46:43.248Z,79.71
2019-05-29T02:51:53.907Z,79.43
2019-05-29T02:56:59.171Z,79.91
2019-05-29T03:02:04.392Z,79.98
2019-05-29T03:07:09.632Z,80.24
2019-05-29T03:12:14.838Z,79.99
2019-05-29T03:17:20.366Z,79.96
2019-05-29T03:22:26.268Z,79.85
2019-05-29T03:27:32.038Z,80.20
2019-05-29T03:32:46.672Z,80.73
2019-05-29T03:37:44.421Z,79.71
2019-05-29T03:42:49.673Z,79.37
2019-05-29T03:47:54.975Z,79.55
2019-05-29T03:53:00.227Z,79.82
2019-05-29T03:58:05.489Z,79.71
2019-05-29T04:03:10.769Z,79.62
2019-05-29T04:08:16.050Z,79.76
2019-05-29T04:13:21.298Z,79.56
2019-05-29T04:18:27.709Z,79.34
2019-05-29T04:23:36.827Z,79.31
2019-05-29T04:28:44.626Z,79.43
2019-05-29T04:33:50.176Z,80.29
2019-05-29T04:38:55.788Z,80.83
2019-05-29T04:44:01.052Z,80.80
2019-05-29T04:49:06.330Z,80.87
2019-05-29T04:54:11.591Z,80.64
2019-05-29T04:59:16.850Z,80.10
2019-05-29T05:04:22.100Z,79.80
2019-05-29T05:09:27.377Z,79.28
2019-05-29T05:14:33.627Z,79.74
2019-05-29T05:19:40.061Z,79.61
2019-05-29T05:24:45.756Z,79.48
2019-05-29T05:29:51.357Z,78.17
2019-05-29T05:34:57.679Z,78.71
2019-05-29T05:40:02.883Z,79.04
2019-05-29T05:45:08.292Z,78.49
2019-05-29T05:50:13.940Z,78.33
2019-05-29T05:55:19.196Z,77.96
2019-05-29T06:00:32.112Z,77.13
2019-05-29T06:05:38.226Z,77.66
2019-05-29T06:10:43.502Z,77.16
2019-05-29T06:15:48.849Z,77.16
2019-05-29T06:20:55.007Z,77.27
2019-05-29T06:26:00.889Z,76.69
2019-05-29T06:31:06.056Z,75.87
2019-05-29T06:36:11.299Z,75.12
2019-05-29T06:41:16.723Z,75.54
2019-05-29T06:46:21.909Z,74.96
2019-05-29T06:51:27.077Z,74.95
2019-05-29T06:56:32.248Z,74.47
2019-05-29T07:01:37.477Z,74.60
2019-05-29T07:06:42.792Z,74.15
2019-05-29T07:11:48.745Z,74.08
2019-05-29T07:16:56.171Z,73.21
2019-05-29T07:22:01.218Z,73.35
2019-05-29T07:27:06.399Z,71.74
2019-05-29T07:32:12.337Z,72.36
2019-05-29T07:37:18.655Z,71.06
2019-05-29T07:42:23.859Z,72.01
2019-05-29T07:47:29.127Z,70.00
2019-05-29T07:52:34.332Z,70.90
2019-05-29T07:57:40.876Z,69.79
2019-05-29T08:02:47.512Z,69.93
2019-05-29T08:07:53.023Z,68.95
2019-05-29T08:12:58.272Z,69.94
2019-05-29T08:18:03.521Z,70.06
2019-05-29T08:23:08.867Z,70.04
2019-05-29T08:28:14.129Z,66.69
2019-05-29T08:33:19.382Z,67.80
2019-05-29T08:38:25.591Z,68.61
2019-05-29T08:43:30.840Z,66.86
2019-05-29T08:48:36.086Z,67.20
2019-05-29T08:53:42.553Z,66.67
2019-05-29T08:58:48.378Z,65.21
2019-05-29T09:03:53.883Z,64.20
2019-05-29T09:08:59.238Z,65.21
2019-05-29T09:14:05.145Z,60.96
2019-05-29T09:19:12.042Z,62.30
2019-05-29T09:24:18.079Z,62.43
2019-05-29T09:29:25.040Z,61.57
2019-05-29T09:34:30.434Z,63.63
2019-05-29T09:39:35.678Z,63.50
2019-05-29T09:44:40.942Z,62.99
2019-05-29T09:49:47.499Z,63.29
2019-05-29T09:54:53.584Z,62.12
2019-05-29T10:00:02.033Z,60.52
2019-05-29T10:05:08.168Z,61.72
2019-05-29T10:10:14.758Z,59.03
2019-05-29T10:15:20.510Z,59.59
2019-05-29T10:20:26.223Z,59.47
2019-05-29T10:25:31.773Z,57.23
2019-05-29T10:30:37.041Z,59.43
2019-05-29T10:35:42.703Z,58.01
2019-05-29T10:41:04.598Z,58.30
2019-05-29T10:45:55.362Z,55.42
2019-05-29T10:51:01.241Z,56.68
2019-05-29T10:56:06.614Z,54.48
2019-05-29T11:01:11.898Z,55.73
2019-05-29T11:06:17.216Z,53.16
2019-05-29T11:11:22.833Z,54.15
2019-05-29T11:16:28.099Z,51.26
2019-05-29T11:21:33.365Z,50.29
2019-05-29T11:26:38.639Z,51.28
2019-05-29T11:31:43.908Z,49.76
2019-05-29T11:36:49.979Z,48.58
2019-05-29T11:41:55.327Z,50.73
2019-05-29T11:47:00.604Z,48.31
2019-05-29T11:52:23.210Z,48.44
2019-05-29T11:57:13.360Z,47.73
2019-05-29T12:02:18.622Z,48.72
2019-05-29T12:07:23.914Z,47.14
2019-05-29T12:12:29.175Z,47.64
2019-05-29T12:17:35.784Z,46.55
2019-05-29T12:22:41.147Z,45.49
2019-05-29T12:27:46.406Z,44.95
2019-05-29T12:32:52.755Z,45.29
2019-05-29T12:37:59.359Z,44.83
2019-05-29T12:43:04.773Z,46.25
2019-05-29T12:48:13.585Z,47.36
2019-05-29T12:53:29.744Z,46.77
2019-05-29T12:58:23.962Z,47.18
2019-05-29T13:03:29.236Z,46.26
2019-05-29T13:08:34.499Z,43.58
2019-05-29T13:13:40.247Z,46.03
2019-05-29T13:18:45.896Z,47.89
2019-05-29T13:23:59.747Z,43.58
2019-05-29T13:29:04.224Z,43.29
2019-05-29T13:34:09.623Z,42.68
2019-05-29T13:39:15.280Z,43.58
2019-05-29T13:44:21.088Z,42.58
2019-05-29T13:49:26.340Z,40.48
2019-05-29T13:54:31.597Z,40.66
2019-05-29T13:59:36.861Z,43.88
2019-05-29T14:04:42.127Z,41.62
2019-05-29T14:09:47.783Z,42.08
2019-05-29T14:14:53.054Z,43.54
2019-05-29T14:19:58.656Z,39.83
2019-05-29T14:25:05.272Z,39.67
2019-05-29T14:30:11.309Z,38.88
2019-05-29T14:35:17.937Z,38.51
2019-05-29T14:40:23.206Z,38.46
2019-05-29T14:45:28.498Z,36.56
2019-05-29T14:50:33.773Z,38.95
2019-05-29T14:55:39.028Z,37.89
2019-05-29T15:00:44.336Z,40.74
2019-05-29T15:05:49.598Z,38.05
2019-05-29T15:10:54.854Z,37.84
2019-05-29T15:16:00.108Z,39.56
2019-05-29T15:21:05.357Z,40.60
2019-05-29T15:26:11.683Z,40.65
2019-05-29T15:31:17.593Z,39.00
2019-05-29T15:36:24.515Z,35.91
2019-05-29T15:41:30.002Z,36.88
2019-05-29T15:46:35.358Z,36.31
2019-05-29T15:51:40.615Z,33.99
2019-05-29T15:56:46.072Z,36.38
2019-05-29T16:01:51.333Z,34.41
2019-05-29T16:06:56.586Z,36.24
2019-05-29T16:12:01.913Z,35.08
2019-05-29T16:17:07.177Z,33.87
2019-05-29T16:22:12.437Z,33.35
2019-05-29T16:27:18.184Z,32.46
2019-05-29T16:32:23.585Z,31.71
2019-05-29T16:37:28.879Z,32.27
2019-05-29T16:42:34.139Z,31.56
2019-05-29T16:47:39.461Z,32.55
2019-05-29T16:52:45.062Z,32.86
2019-05-29T16:57:50.324Z,34.37
2019-05-29T17:02:55.586Z,34.38
2019-05-29T17:08:00.906Z,34.23
2019-05-29T17:13:07.103Z,32.77
2019-05-29T17:18:12.363Z,32.68
2019-05-29T17:23:18.862Z,32.69
2019-05-29T17:28:27.615Z,33.25
2019-05-29T17:33:31.202Z,32.77
2019-05-29T17:38:36.539Z,34.21
2019-05-29T17:43:41.793Z,33.31
2019-05-29T17:48:47.116Z,33.13
2019-05-29T17:53:52.384Z,33.09
2019-05-29T17:58:57.637Z,32.83
2019-05-29T18:04:02.901Z,34.51
2019-05-29T18:09:08.672Z,34.08
2019-05-29T18:14:14.045Z,35.23
2019-05-29T18:19:19.722Z,36.31
2019-05-29T18:24:26.059Z,36.08
2019-05-29T18:29:32.370Z,36.97
2019-05-29T18:34:37.935Z,38.55
2019-05-29T18:39:44.276Z,39.06
2019-05-29T18:44:49.810Z,39.67
2019-05-29T18:49:55.437Z,41.17
2019-05-29T18:55:01.008Z,41.35
2019-05-29T19:00:07.667Z,41.65
2019-05-29T19:05:13.453Z,41.97
2019-05-29T19:10:20.010Z,42.24
2019-05-29T19:15:25.967Z,42.13
2019-05-29T19:20:32.536Z,42.81
2019-05-29T19:25:37.826Z,42.83
2019-05-29T19:30:43.112Z,42.88
2019-05-29T19:35:48.399Z,42.99
2019-05-29T19:40:54.018Z,43.46
2019-05-29T19:45:59.369Z,43.62
2019-05-29T19:51:05.009Z,43.76
2019-05-29T19:56:10.645Z,43.98
2019-05-29T20:01:30.053Z,48.33
2019-05-29T20:06:22.926Z,51.48
2019-05-29T20:11:29.329Z,53.68
2019-05-29T20:16:36.227Z,54.56
2019-05-29T20:21:41.562Z,54.46
2019-05-29T20:26:46.812Z,56.76
2019-05-29T20:31:52.492Z,55.12
2019-05-29T20:36:58.219Z,56.14
2019-05-29T20:42:03.855Z,56.54
2019-05-29T20:47:09.120Z,57.88
2019-05-29T20:52:15.443Z,57.51
2019-05-29T20:57:21.089Z,56.26
2019-05-29T21:02:26.679Z,56.17
2019-05-29T21:07:32.551Z,56.49
2019-05-29T21:12:41.951Z,57.04
2019-05-29T21:17:44.825Z,56.74
2019-05-29T21:22:50.100Z,57.80
2019-05-29T21:27:56.211Z,58.15
2019-05-29T21:33:01.558Z,59.87
2019-05-29T21:38:06.797Z,60.73
2019-05-29T21:43:12.059Z,60.13
2019-05-29T21:48:17.460Z,60.95
2019-05-29T21:53:23.115Z,60.39
2019-05-29T21:58:28.480Z,61.02
2019-05-29T22:03:34.437Z,62.01
2019-05-29T22:08:40.613Z,61.21
2019-05-29T22:13:46.419Z,61.04
2019-05-29T22:18:52.907Z,61.79
2019-05-29T22:23:59.189Z,64.08
2019-05-29T22:29:17.445Z,62.26
2019-05-29T22:34:12.791Z,62.88
2019-05-29T22:39:18.351Z,63.14
2019-05-29T22:44:29.658Z,63.58
2019-05-29T22:49:34.976Z,62.48
2019-05-29T22:54:43.761Z,62.78
2019-05-29T22:59:49.392Z,63.23
2019-05-29T23:04:56.219Z,63.36
2019-05-29T23:10:02.677Z,63.29
2019-05-29T23:15:09.681Z,63.72
2019-05-29T23:20:16.620Z,64.34
2019-05-29T23:25:23.084Z,64.32
2019-05-29T23:30:30.645Z,65.14
2019-05-29T23:35:36.169Z,64.72
2019-05-29T23:40:42.451Z,64.70
2019-05-29T23:45:47.929Z,64.50
2019-05-29T23:50:53.495Z,64.90
2019-05-29T23:56:00.094Z,65.13
